createdAt,value
2023-04-22T00:01:40.089Z,11.80
2023-04-22T00:04:09.217Z,11.80
2023-04-22T00:06:37.634Z,11.80
2023-04-22T00:09:07.045Z,11.80
2023-04-22T00:11:35.000Z,11.70
2023-04-22T00:14:02.984Z,11.70
2023-04-22T00:16:31.012Z,11.70
2023-04-22T00:18:59.105Z,11.60
2023-04-22T00:21:27.481Z,11.60
2023-04-22T00:23:55.695Z,11.60
2023-04-22T00:26:25.272Z,11.50
2023-04-22T00:28:53.238Z,11.50
2023-04-22T00:31:21.231Z,11.50
2023-04-22T00:33:49.210Z,11.50
2023-04-22T00:36:17.250Z,11.40
2023-04-22T00:38:49.598Z,11.30
2023-04-22T00:41:18.245Z,11.30
2023-04-22T00:43:48.072Z,11.30
2023-04-22T00:46:17.674Z,11.20
2023-04-22T00:48:47.292Z,11.10
2023-04-22T00:51:15.342Z,11.10
2023-04-22T00:53:43.276Z,11.00
2023-04-22T00:56:12.848Z,11.00
2023-04-22T00:58:41.156Z,11.00
2023-04-22T01:01:10.548Z,11.00
2023-04-22T01:03:41.601Z,10.90
2023-04-22T01:06:09.883Z,10.80
2023-04-22T01:08:37.952Z,10.80
2023-04-22T01:11:06.167Z,10.80
2023-04-22T01:13:35.901Z,10.80
2023-04-22T01:16:04.049Z,10.70
2023-04-22T01:18:34.223Z,10.70
2023-04-22T01:21:03.452Z,10.60
2023-04-22T01:23:32.912Z,10.60
2023-04-22T01:26:01.541Z,10.60
2023-04-22T01:28:30.461Z,10.50
2023-04-22T01:30:58.683Z,10.50
2023-04-22T01:33:26.868Z,10.50
2023-04-22T01:35:54.934Z,10.50
2023-04-22T01:38:23.099Z,10.40
2023-04-22T01:40:53.030Z,10.40
2023-04-22T01:43:21.154Z,10.40
2023-04-22T01:45:49.254Z,10.30
2023-04-22T01:48:17.439Z,10.30
2023-04-22T01:50:45.848Z,10.20
2023-04-22T01:53:14.445Z,10.20
2023-04-22T01:55:43.971Z,10.20
2023-04-22T01:58:13.305Z,10.10
2023-04-22T02:00:41.346Z,10.10
2023-04-22T02:03:09.416Z,10.10
2023-04-22T02:05:38.081Z,10.00
2023-04-22T02:08:06.049Z,10.00
2023-04-22T02:10:34.014Z,9.90
2023-04-22T02:13:01.971Z,9.90
2023-04-22T02:15:31.566Z,9.80
2023-04-22T02:18:00.026Z,9.80
2023-04-22T02:20:28.019Z,9.80
2023-04-22T02:22:55.987Z,9.80
2023-04-22T02:25:24.101Z,9.70
2023-04-22T02:27:52.100Z,9.80
2023-04-22T02:30:20.068Z,9.70
2023-04-22T02:32:49.926Z,9.70
2023-04-22T02:35:18.013Z,9.60
2023-04-22T02:37:45.974Z,9.60
2023-04-22T02:40:14.184Z,9.60
2023-04-22T02:42:42.194Z,9.50
2023-04-22T02:45:11.144Z,9.50
2023-04-22T02:47:39.228Z,9.50
2023-04-22T02:50:09.951Z,9.50
2023-04-22T02:52:37.986Z,9.40
2023-04-22T02:55:06.633Z,9.50
2023-04-22T02:57:34.656Z,9.40
2023-04-22T03:00:02.904Z,9.40
2023-04-22T03:02:31.259Z,9.40
2023-04-22T03:05:00.926Z,9.30
2023-04-22T03:07:30.262Z,9.30
2023-04-22T03:09:58.252Z,9.30
2023-04-22T03:12:26.435Z,9.40
2023-04-22T03:14:54.391Z,9.30
2023-04-22T03:17:22.516Z,9.00
2023-04-22T03:19:50.538Z,9.20
2023-04-22T03:22:18.521Z,9.20
2023-04-22T03:24:47.812Z,9.20
2023-04-22T03:27:15.749Z,9.20
2023-04-22T03:29:43.717Z,9.10
2023-04-22T03:32:12.141Z,9.00
2023-04-22T03:34:40.148Z,9.00
2023-04-22T03:37:08.270Z,9.00
2023-04-22T03:39:36.452Z,8.90
2023-04-22T03:42:06.321Z,8.90
2023-04-22T03:44:34.276Z,8.90
2023-04-22T03:47:02.472Z,8.90
2023-04-22T03:49:30.904Z,8.90
2023-04-22T03:51:59.253Z,8.90
2023-04-22T03:54:28.595Z,8.80
2023-04-22T03:56:56.742Z,8.80
2023-04-22T03:59:26.155Z,8.80
2023-04-22T04:01:54.868Z,8.80
2023-04-22T04:04:24.341Z,8.80
2023-04-22T04:06:52.589Z,8.80
2023-04-22T04:09:20.536Z,8.80
2023-04-22T04:11:48.591Z,8.80
2023-04-22T04:14:16.710Z,8.80
2023-04-22T04:16:46.088Z,8.80
2023-04-22T04:19:14.084Z,8.80
2023-04-22T04:21:42.506Z,8.80
2023-04-22T04:24:10.516Z,8.80
2023-04-22T04:26:38.513Z,8.80
2023-04-22T04:29:06.774Z,8.80
2023-04-22T04:31:35.373Z,8.90
2023-04-22T04:34:05.812Z,8.90
2023-04-22T04:36:34.370Z,8.90
2023-04-22T04:39:02.551Z,8.90
2023-04-22T04:41:31.898Z,9.00
2023-04-22T04:44:00.560Z,8.80
2023-04-22T04:46:29.785Z,8.90
2023-04-22T04:48:58.827Z,8.90
2023-04-22T04:51:28.287Z,9.00
2023-04-22T04:53:56.255Z,9.00
2023-04-22T04:56:24.238Z,9.00
2023-04-22T04:58:52.180Z,9.00
2023-04-22T05:01:20.179Z,9.10
2023-04-22T05:03:48.315Z,9.10
2023-04-22T05:06:16.442Z,9.10
2023-04-22T05:08:45.708Z,9.00
2023-04-22T05:11:13.817Z,9.00
2023-04-22T05:13:41.787Z,9.10
2023-04-22T05:16:09.855Z,9.10
2023-04-22T05:18:37.878Z,9.10
2023-04-22T05:21:06.204Z,9.20
2023-04-22T05:23:34.444Z,9.20
2023-04-22T05:26:03.800Z,9.30
2023-04-22T05:28:31.928Z,9.40
2023-04-22T05:30:59.900Z,9.40
2023-04-22T05:33:27.839Z,9.50
2023-04-22T05:35:56.320Z,9.50
2023-04-22T05:38:24.305Z,9.50
2023-04-22T05:40:52.516Z,9.60
2023-04-22T05:43:21.854Z,9.60
2023-04-22T05:45:49.969Z,9.70
2023-04-22T05:48:17.923Z,9.80
2023-04-22T05:50:45.950Z,9.80
2023-04-22T05:53:13.936Z,9.90
2023-04-22T05:55:42.379Z,9.90
2023-04-22T05:58:10.500Z,10.00
2023-04-22T06:00:39.841Z,10.00
2023-04-22T06:03:08.092Z,10.10
2023-04-22T06:05:36.635Z,10.20
2023-04-22T06:08:04.771Z,10.20
2023-04-22T06:10:32.795Z,10.30
2023-04-22T06:13:01.260Z,10.30
2023-04-22T06:15:29.859Z,10.40
2023-04-22T06:17:59.225Z,10.40
2023-04-22T06:20:27.452Z,10.50
2023-04-22T06:22:55.479Z,10.50
2023-04-22T06:25:23.425Z,10.60
2023-04-22T06:27:51.407Z,10.70
2023-04-22T06:30:19.405Z,10.70
2023-04-22T06:32:47.397Z,10.90
2023-04-22T06:35:16.975Z,10.90
2023-04-22T06:37:45.122Z,11.00
2023-04-22T06:40:13.400Z,11.00
2023-04-22T06:42:41.461Z,11.10
2023-04-22T06:45:12.785Z,11.10
2023-04-22T06:47:41.024Z,11.20
2023-04-22T06:50:10.545Z,11.30
2023-04-22T06:52:39.864Z,11.30
2023-04-22T06:55:08.565Z,11.40
2023-04-22T06:57:36.565Z,11.50
2023-04-22T07:00:05.356Z,11.50
2023-04-22T07:02:33.638Z,11.60
2023-04-22T07:05:01.662Z,11.60
2023-04-22T07:07:29.762Z,11.70
2023-04-22T07:09:59.173Z,11.80
2023-04-22T07:12:27.174Z,11.80
2023-04-22T07:14:55.128Z,11.90
2023-04-22T07:17:23.123Z,11.90
2023-04-22T07:19:51.258Z,12.00
2023-04-22T07:22:19.180Z,12.10
2023-04-22T07:24:47.148Z,12.10
2023-04-22T07:27:17.259Z,12.20
2023-04-22T07:29:45.246Z,12.20
2023-04-22T07:32:13.269Z,12.30
2023-04-22T07:34:41.350Z,12.40
2023-04-22T07:37:09.617Z,12.40
2023-04-22T07:39:37.952Z,12.50
2023-04-22T07:42:07.371Z,12.50
2023-04-22T07:44:38.810Z,12.60
2023-04-22T07:47:08.673Z,12.70
2023-04-22T07:49:36.795Z,12.70
2023-04-22T07:52:04.918Z,12.70
2023-04-22T07:54:32.883Z,12.80
2023-04-22T07:57:01.675Z,12.90
2023-04-22T07:59:29.631Z,13.00
2023-04-22T08:01:58.967Z,13.00
2023-04-22T08:04:27.245Z,13.10
2023-04-22T08:06:56.211Z,13.10
2023-04-22T08:09:24.278Z,13.20
2023-04-22T08:11:53.602Z,13.20
2023-04-22T08:14:21.632Z,13.30
2023-04-22T08:16:49.719Z,13.30
2023-04-22T08:19:19.498Z,13.40
2023-04-22T08:21:48.708Z,13.50
2023-04-22T08:24:16.681Z,13.50
2023-04-22T08:26:44.816Z,13.50
2023-04-22T08:29:12.987Z,13.60
2023-04-22T08:31:41.364Z,13.60
2023-04-22T08:34:09.388Z,13.70
2023-04-22T08:36:38.710Z,13.80
2023-04-22T08:39:06.740Z,13.80
2023-04-22T08:41:35.661Z,13.80
2023-04-22T08:44:04.213Z,13.90
2023-04-22T08:46:32.733Z,14.00
2023-04-22T08:49:03.956Z,14.00
2023-04-22T08:51:33.699Z,14.00
2023-04-22T08:54:03.264Z,14.10
2023-04-22T08:56:32.547Z,14.20
2023-04-22T08:59:01.058Z,14.20
2023-04-22T09:01:32.133Z,14.20
2023-04-22T09:04:01.250Z,14.20
2023-04-22T09:06:29.277Z,14.30
2023-04-22T09:08:59.234Z,14.40
2023-04-22T09:11:29.524Z,14.50
2023-04-22T09:13:57.606Z,14.60
2023-04-22T09:16:25.616Z,14.70
2023-04-22T09:18:53.698Z,14.80
2023-04-22T09:21:21.773Z,14.80
2023-04-22T09:23:52.008Z,14.90
2023-04-22T09:26:21.863Z,15.00
2023-04-22T09:28:52.895Z,15.10
2023-04-22T09:31:22.264Z,15.10
2023-04-22T09:33:52.366Z,15.20
2023-04-22T09:36:24.312Z,15.20
2023-04-22T09:38:57.251Z,15.20
2023-04-22T09:41:29.394Z,15.40
2023-04-22T09:43:59.889Z,15.50
2023-04-22T09:46:29.191Z,15.60
2023-04-22T09:48:58.716Z,15.70
2023-04-22T09:51:28.586Z,15.90
2023-04-22T09:54:01.921Z,16.00
2023-04-22T09:56:43.817Z,16.20
2023-04-22T09:59:13.357Z,16.40
2023-04-22T10:01:42.645Z,16.50
2023-04-22T10:04:11.864Z,16.70
2023-04-22T10:06:39.891Z,16.80
2023-04-22T10:09:09.499Z,16.90
2023-04-22T10:11:38.654Z,17.00
2023-04-22T10:14:06.677Z,17.00
2023-04-22T10:16:36.968Z,17.10
2023-04-22T10:19:08.285Z,17.20
2023-04-22T10:21:37.481Z,17.30
2023-04-22T10:24:06.093Z,17.30
2023-04-22T10:26:41.455Z,17.40
2023-04-22T10:29:13.490Z,17.50
2023-04-22T10:31:42.881Z,17.50
2023-04-22T10:34:13.280Z,17.60
2023-04-22T10:36:58.852Z,17.60
2023-04-22T10:39:28.508Z,17.70
2023-04-22T10:42:09.969Z,17.70
2023-04-22T10:44:49.675Z,17.80
2023-04-22T10:47:30.762Z,17.80
2023-04-22T10:50:19.034Z,18.00
2023-04-22T10:52:49.785Z,18.30
2023-04-22T10:55:18.069Z,18.70
2023-04-22T10:57:47.290Z,19.20
2023-04-22T11:00:45.778Z,19.70
2023-04-22T11:03:28.617Z,20.20
2023-04-22T11:06:17.040Z,20.60
2023-04-22T11:08:49.457Z,21.10
2023-04-22T11:11:19.603Z,21.40
2023-04-22T11:13:50.687Z,21.90
2023-04-22T11:16:22.427Z,22.40
2023-04-22T11:18:52.080Z,22.80
2023-04-22T11:21:21.601Z,23.20
2023-04-22T11:23:52.401Z,23.50
2023-04-22T11:26:33.707Z,23.90
2023-04-22T11:29:01.794Z,24.10
2023-04-22T11:31:29.877Z,24.20
2023-04-22T11:34:01.815Z,24.30
2023-04-22T11:36:29.948Z,24.40
2023-04-22T11:38:58.330Z,24.60
2023-04-22T11:41:26.335Z,24.80
2023-04-22T11:43:55.739Z,24.80
2023-04-22T11:46:31.501Z,24.90
2023-04-22T11:49:15.128Z,25.20
2023-04-22T11:51:56.317Z,25.30
2023-04-22T11:54:34.852Z,25.30
2023-04-22T11:57:08.470Z,25.30
2023-04-22T11:59:36.753Z,25.40
2023-04-22T12:02:06.897Z,25.40
2023-04-22T12:04:39.819Z,25.70
2023-04-22T12:07:07.998Z,25.80
2023-04-22T12:09:36.139Z,26.10
2023-04-22T12:12:05.036Z,26.40
2023-04-22T12:14:33.883Z,26.60
2023-04-22T12:17:04.659Z,26.60
2023-04-22T12:19:32.948Z,26.60
2023-04-22T12:22:02.519Z,26.60
2023-04-22T12:24:31.291Z,26.40
2023-04-22T12:26:59.651Z,26.40
2023-04-22T12:29:32.392Z,26.40
2023-04-22T12:32:00.628Z,26.50
2023-04-22T12:34:28.739Z,26.60
2023-04-22T12:36:56.985Z,26.60
2023-04-22T12:39:26.561Z,26.60
2023-04-22T12:41:54.539Z,26.80
2023-04-22T12:44:24.957Z,27.00
2023-04-22T12:46:53.748Z,27.20
2023-04-22T12:49:21.991Z,27.30
2023-04-22T12:51:50.406Z,27.40
2023-04-22T12:54:18.514Z,27.60
2023-04-22T12:56:49.005Z,27.80
2023-04-22T12:59:17.078Z,28.10
2023-04-22T13:01:45.099Z,28.20
2023-04-22T13:04:13.302Z,28.20
2023-04-22T13:06:44.107Z,27.80
2023-04-22T13:09:13.355Z,27.50
2023-04-22T13:11:41.338Z,27.30
2023-04-22T13:14:11.366Z,27.20
2023-04-22T13:16:39.385Z,27.30
2023-04-22T13:19:07.723Z,27.20
2023-04-22T13:21:35.784Z,27.30
2023-04-22T13:24:04.001Z,27.40
2023-04-22T13:26:32.324Z,27.50
2023-04-22T13:29:02.618Z,27.50
2023-04-22T13:31:32.239Z,27.60
2023-04-22T13:34:00.292Z,27.60
2023-04-22T13:36:28.283Z,27.70
2023-04-22T13:38:56.278Z,27.80
2023-04-22T13:41:24.218Z,28.00
2023-04-22T13:43:54.375Z,28.10
2023-04-22T13:46:22.584Z,28.20
2023-04-22T13:48:51.970Z,28.60
2023-04-22T13:51:19.931Z,28.90
2023-04-22T13:53:47.899Z,29.10
2023-04-22T13:56:15.978Z,29.10
2023-04-22T13:58:43.968Z,29.30
2023-04-22T14:01:12.011Z,29.40
2023-04-22T14:03:40.343Z,29.10
2023-04-22T14:06:10.090Z,28.70
2023-04-22T14:08:39.286Z,28.10
2023-04-22T14:11:08.725Z,27.90
2023-04-22T14:13:36.949Z,27.70
2023-04-22T14:16:09.751Z,27.70
2023-04-22T14:18:38.576Z,27.90
2023-04-22T14:21:09.581Z,28.10
2023-04-22T14:23:39.804Z,28.20
2023-04-22T14:26:09.142Z,28.10
2023-04-22T14:28:37.975Z,28.10
2023-04-22T14:31:06.280Z,28.30
2023-04-22T14:33:34.420Z,28.50
2023-04-22T14:36:02.632Z,28.50
2023-04-22T14:38:30.791Z,28.40
2023-04-22T14:41:00.207Z,28.40
2023-04-22T14:43:28.211Z,28.60
2023-04-22T14:45:56.453Z,28.60
2023-04-22T14:48:25.513Z,28.60
2023-04-22T14:50:53.590Z,28.50
2023-04-22T14:53:21.674Z,28.40
2023-04-22T14:55:49.696Z,28.30
2023-04-22T14:58:19.098Z,28.10
2023-04-22T15:00:49.050Z,28.10
2023-04-22T15:03:17.214Z,28.40
2023-04-22T15:05:49.215Z,28.60
2023-04-22T15:08:17.191Z,28.80
2023-04-22T15:10:45.279Z,28.90
2023-04-22T15:13:13.324Z,29.00
2023-04-22T15:15:42.870Z,29.20
2023-04-22T15:18:11.765Z,29.20
2023-04-22T15:20:39.759Z,28.80
2023-04-22T15:23:07.710Z,28.40
2023-04-22T15:25:36.093Z,28.40
2023-04-22T15:28:04.382Z,28.40
2023-04-22T15:30:32.473Z,28.40
2023-04-22T15:33:02.109Z,28.30
2023-04-22T15:35:30.409Z,28.00
2023-04-22T15:37:59.276Z,27.90
2023-04-22T15:40:27.518Z,27.80
2023-04-22T15:42:55.540Z,27.80
2023-04-22T15:45:23.554Z,27.80
2023-04-22T15:47:52.409Z,27.70
2023-04-22T15:50:23.500Z,27.60
2023-04-22T15:52:51.548Z,27.60
2023-04-22T15:55:19.512Z,27.80
2023-04-22T15:57:47.535Z,28.00
2023-04-22T16:00:16.473Z,28.20
2023-04-22T16:02:45.078Z,28.30
2023-04-22T16:05:14.570Z,28.30
2023-04-22T16:07:44.241Z,28.30
2023-04-22T16:10:12.464Z,28.20
2023-04-22T16:12:40.441Z,28.20
2023-04-22T16:15:10.574Z,28.30
2023-04-22T16:17:39.252Z,28.20
2023-04-22T16:20:08.969Z,28.10
2023-04-22T16:22:37.095Z,28.10
2023-04-22T16:25:09.745Z,28.10
2023-04-22T16:27:37.724Z,28.00
2023-04-22T16:30:07.234Z,28.10
2023-04-22T16:32:35.612Z,28.10
2023-04-22T16:35:04.626Z,27.90
2023-04-22T16:37:34.367Z,27.80
2023-04-22T16:40:02.782Z,27.50
2023-04-22T16:42:32.161Z,27.20
2023-04-22T16:45:00.391Z,26.90
2023-04-22T16:47:28.479Z,26.70
2023-04-22T16:49:56.813Z,26.50
2023-04-22T16:52:24.843Z,26.40
2023-04-22T16:54:52.816Z,26.30
2023-04-22T16:57:20.861Z,26.10
2023-04-22T16:59:50.141Z,25.90
2023-04-22T17:02:18.244Z,25.70
2023-04-22T17:04:46.299Z,25.60
2023-04-22T17:07:14.302Z,25.60
2023-04-22T17:09:42.482Z,25.40
2023-04-22T17:12:11.156Z,25.20
2023-04-22T17:14:39.182Z,25.10
2023-04-22T17:17:08.624Z,24.90
2023-04-22T17:19:37.104Z,24.80
2023-04-22T17:22:05.409Z,24.80
2023-04-22T17:24:33.489Z,24.70
2023-04-22T17:27:01.710Z,24.60
2023-04-22T17:29:30.349Z,24.50
2023-04-22T17:31:58.417Z,24.30
2023-04-22T17:34:28.367Z,24.20
2023-04-22T17:36:56.616Z,24.00
2023-04-22T17:39:24.684Z,23.80
2023-04-22T17:41:52.684Z,23.60
2023-04-22T17:44:20.631Z,23.40
2023-04-22T17:46:48.631Z,23.30
2023-04-22T17:49:16.861Z,23.00
2023-04-22T17:51:46.409Z,22.80
2023-04-22T17:54:14.550Z,22.70
2023-04-22T17:56:42.748Z,22.50
2023-04-22T17:59:11.512Z,22.30
2023-04-22T18:01:40.092Z,22.20
2023-04-22T18:04:08.215Z,22.00
2023-04-22T18:06:36.504Z,21.80
2023-04-22T18:09:05.893Z,21.70
2023-04-22T18:11:34.314Z,21.50
2023-04-22T18:14:02.584Z,21.40
2023-04-22T18:16:30.795Z,21.20
2023-04-22T18:18:59.890Z,21.10
2023-04-22T18:21:29.454Z,20.90
2023-04-22T18:23:57.773Z,20.80
2023-04-22T18:26:27.604Z,20.70
2023-04-22T18:28:55.772Z,20.50
2023-04-22T18:31:23.933Z,20.50
2023-04-22T18:33:52.026Z,20.30
2023-04-22T18:36:20.083Z,20.20
2023-04-22T18:38:48.228Z,20.10
2023-04-22T18:41:16.500Z,20.00
2023-04-22T18:43:47.159Z,19.90
2023-04-22T18:46:15.304Z,19.80
2023-04-22T18:48:43.538Z,19.70
2023-04-22T18:51:12.502Z,19.50
2023-04-22T18:53:40.606Z,19.40
2023-04-22T18:56:08.698Z,19.30
2023-04-22T18:58:37.047Z,19.20
2023-04-22T19:01:07.058Z,19.10
2023-04-22T19:03:35.756Z,19.00
2023-04-22T19:06:04.036Z,18.90
2023-04-22T19:08:32.247Z,18.90
2023-04-22T19:11:00.524Z,18.80
2023-04-22T19:13:30.185Z,18.70
2023-04-22T19:15:58.903Z,18.60
2023-04-22T19:18:28.509Z,18.60
2023-04-22T19:20:56.568Z,18.50
2023-04-22T19:23:24.864Z,18.40
2023-04-22T19:25:53.333Z,18.30
2023-04-22T19:28:21.526Z,18.20
2023-04-22T19:30:49.787Z,18.10
2023-04-22T19:33:18.027Z,17.90
2023-04-22T19:35:47.386Z,17.90
2023-04-22T19:38:19.169Z,17.80
2023-04-22T19:40:47.536Z,17.80
2023-04-22T19:43:17.121Z,17.70
2023-04-22T19:45:45.598Z,17.70
2023-04-22T19:48:14.426Z,17.60
2023-04-22T19:50:44.888Z,17.50
2023-04-22T19:53:14.761Z,17.40
2023-04-22T19:55:44.413Z,17.30
2023-04-22T19:58:12.681Z,17.30
2023-04-22T20:00:42.551Z,17.20
2023-04-22T20:03:13.144Z,17.10
2023-04-22T20:05:42.459Z,17.10
2023-04-22T20:08:11.404Z,17.00
2023-04-22T20:10:41.347Z,16.90
2023-04-22T20:13:09.858Z,16.90
2023-04-22T20:15:38.204Z,16.80
2023-04-22T20:18:06.884Z,16.70
2023-04-22T20:20:35.196Z,16.70
2023-04-22T20:23:09.757Z,16.60
2023-04-22T20:25:44.117Z,16.50
2023-04-22T20:28:14.424Z,16.40
2023-04-22T20:30:43.000Z,16.40
2023-04-22T20:33:15.754Z,16.40
2023-04-22T20:35:46.173Z,16.30
2023-04-22T20:38:15.289Z,16.20
2023-04-22T20:40:46.280Z,16.20
2023-04-22T20:43:14.524Z,16.10
2023-04-22T20:45:43.397Z,16.00
2023-04-22T20:48:11.667Z,16.00
2023-04-22T20:50:39.663Z,15.90
2023-04-22T20:53:07.728Z,15.90
2023-04-22T20:55:37.243Z,15.90
2023-04-22T20:58:07.054Z,15.80
2023-04-22T21:00:35.502Z,15.70
2023-04-22T21:03:05.523Z,15.70
2023-04-22T21:05:40.768Z,15.60
2023-04-22T21:08:19.867Z,15.50
2023-04-22T21:10:48.762Z,15.50
2023-04-22T21:13:19.030Z,15.40
2023-04-22T21:15:55.957Z,15.40
2023-04-22T21:18:26.579Z,15.40
2023-04-22T21:20:56.356Z,15.30
2023-04-22T21:23:25.244Z,15.30
2023-04-22T21:25:56.182Z,15.20
2023-04-22T21:28:26.325Z,15.10
2023-04-22T21:30:55.709Z,15.10
2023-04-22T21:33:25.350Z,15.00
2023-04-22T21:35:53.388Z,15.00
2023-04-22T21:38:21.811Z,14.90
2023-04-22T21:40:49.872Z,14.80
2023-04-22T21:43:17.893Z,14.80
2023-04-22T21:45:47.324Z,14.80
2023-04-22T21:48:15.372Z,14.80
2023-04-22T21:50:43.667Z,14.70
2023-04-22T21:53:12.366Z,14.70
2023-04-22T21:55:40.630Z,14.60
2023-04-22T21:58:08.639Z,14.60
2023-04-22T22:00:37.835Z,14.50
2023-04-22T22:03:07.634Z,14.50
2023-04-22T22:05:36.705Z,14.40
2023-04-22T22:08:04.866Z,14.40
2023-04-22T22:10:32.988Z,14.40
2023-04-22T22:13:01.068Z,14.30
2023-04-22T22:15:29.202Z,14.30
2023-04-22T22:17:57.582Z,14.20
2023-04-22T22:20:27.055Z,14.20
2023-04-22T22:22:55.251Z,14.20
2023-04-22T22:25:23.257Z,14.10
2023-04-22T22:27:51.305Z,14.10
2023-04-22T22:30:21.636Z,14.10
2023-04-22T22:32:49.934Z,14.10
2023-04-22T22:35:18.220Z,14.10
2023-04-22T22:37:48.072Z,14.00
2023-04-22T22:40:16.518Z,13.90
2023-04-22T22:42:44.771Z,13.90
2023-04-22T22:45:13.264Z,13.90
2023-04-22T22:47:41.382Z,13.80
2023-04-22T22:50:10.016Z,13.70
2023-04-22T22:52:38.057Z,13.70
2023-04-22T22:55:10.252Z,13.70
2023-04-22T22:57:38.382Z,13.60
2023-04-22T23:00:09.475Z,13.50
2023-04-22T23:02:37.898Z,13.50
2023-04-22T23:05:09.536Z,13.50
2023-04-22T23:07:38.806Z,13.40
2023-04-22T23:10:09.671Z,13.40
2023-04-22T23:12:37.709Z,13.40
2023-04-22T23:15:07.795Z,13.30
2023-04-22T23:17:37.283Z,13.30
2023-04-22T23:20:08.183Z,13.20
2023-04-22T23:22:38.774Z,13.20
2023-04-22T23:25:09.624Z,13.20
2023-04-22T23:27:38.185Z,13.10
2023-04-22T23:30:07.806Z,13.10
2023-04-22T23:32:40.076Z,13.00
2023-04-22T23:35:09.684Z,13.00
2023-04-22T23:37:38.832Z,12.90
2023-04-22T23:40:10.415Z,12.90
2023-04-22T23:42:38.368Z,12.90
2023-04-22T23:45:07.494Z,12.80
2023-04-22T23:47:35.736Z,12.80
2023-04-22T23:50:04.877Z,12.80
2023-04-22T23:52:32.845Z,12.70
2023-04-22T23:55:01.216Z,12.70
2023-04-22T23:57:31.152Z,12.60
2023-04-22T23:59:59.550Z,12.60
